KBIS/BIS METAR and TAF weather

Enter ICAO airport designator
Station Type Date Time Source
KBIS METAR 2020/07/04 08:52 UTC NOAA

KBIS 040852Z AUTO 13010KT 10SM -RA FEW060 FEW070 BKN110 22/18 A2998 RMK AO2 RAB51 PRESFR SLP140 P0000 60000 T02170178 58025


Station Type Date Time Source
KBIS Decoded METAR 2020/07/04 08:52 UTC NOAA

BISMARCK MUNICIPAL AIRPORT, ND, United States (KBIS) 46-47N 100-45W 503M
Jul 04, 2020 - 04:52 AM EDT / 2020.07.04 0852 UTC
Wind: from the SE (130 degrees) at 12 MPH (10 KT):0
Visibility: 10 mile(s):0
Sky conditions: mostly cloudy
Weather: light rain
Precipitation last hour: A trace
Temperature: 71.1 F (21.7 C)
Dew Point: 64.0 F (17.8 C)
Relative Humidity: 78%
Pressure (altimeter): 29.98 in. Hg (1015 hPa)
Pressure tendency: falling rapidly - 0.07 inches (2.5 hPa) lower than three hours ago
ob: KBIS 040852Z AUTO 13010KT 10SM -RA FEW060 FEW070 BKN110 22/18 A2998 RMK AO2 RAB51 PRESFR SLP140 P0000 60000 T02170178 58025
cycle: 9

Station Type Date Time Source
KBIS TAF 2020/07/04 06:39 UTC NOAA

TAF KBIS 040536Z 0406/0506 13004KT P6SM BKN150
FM040730 09007KT P6SM -SHRA SCT070 BKN200
TEMPO 0408/0411 VRB20G30KT 5SM TSRA BKN040CB
FM041500 14008KT P6SM VCTS SCT070CB BKN200
FM041800 19009KT P6SM FEW060 SCT250
FM050000 03006KT P6SM FEW070 SCT250

Example: see airport list